Paradise Hill, Canada
Current Conditions -  °F | °C
As of 11:00 PM on Friday 28 Nov 2014 (Local Time) from CYLL Reporting Station
Light Snow Light Snow  
Wind Chill: -31°   Ceiling: 10000
Heat Index: -11°   Visibility: 9mi
Dew Point: -17°   Wind: 12mph
Humidity: 77%   Direction: 320°NW
Pressure: 29.7"   Gusts: NA
Location:  53.53°N, 109.45°W
Report Text: CYLL 290500Z AUTO 32010KT 9SM -SN SCT025 BKN100 BKN220 OVC240 M24/M27 A2970 RMK SLP127
Loading
Personal Weather Stations






























Interactive Weather Map New forecast layout! Learn more

10-Day Weather Forecast

Advertisements
Track Severe Weather on mobile